Broaddus, Texas
Current Conditions -  °F | °C
As of 11:53 PM on Tuesday 21 Oct 2014 (Local Time) from KLFK Reporting Station
Haze Haze  
Wind Chill: 64°   Ceiling: Unl
Heat Index: 64°   Visibility: 4mi
Dew Point: 60°   Wind: 0mph
Humidity: 87%   Direction: NA
Pressure: 30.06"   Gusts: NA
Location:  31.31°N, 94.27°W
Report Text: KLFK 220453Z AUTO 00000KT 4SM BR CLR 18/16 A3006 RMK AO2 SLP175 T01780156
Loading
Personal Weather Stations






























Interactive Weather Map New forecast layout! Learn more

10-Day Weather Forecast

Advertisements
Track Severe Weather on mobile